createdAt,value
2022-07-25T00:01:53.032Z,101028.53
2022-07-25T00:04:20.534Z,101019.81
2022-07-25T00:06:49.669Z,101022.66
2022-07-25T00:09:17.134Z,101019.16
2022-07-25T00:11:44.596Z,101016.47
2022-07-25T00:14:12.048Z,101010.09
2022-07-25T00:16:40.962Z,101014.59
2022-07-25T00:19:08.435Z,101010.09
2022-07-25T00:21:35.868Z,101008.22
2022-07-25T00:24:03.801Z,100999.31
2022-07-25T00:26:33.527Z,100995.94
2022-07-25T00:29:04.162Z,100996.97
2022-07-25T00:31:31.652Z,100993.63
2022-07-25T00:34:00.456Z,100991.09
2022-07-25T00:36:27.980Z,100989.75
2022-07-25T00:38:55.444Z,100991.44
2022-07-25T00:41:22.942Z,100998.00
2022-07-25T00:43:50.385Z,100990.94
2022-07-25T00:46:19.005Z,100985.56
2022-07-25T00:48:46.755Z,100988.25
2022-07-25T00:51:15.569Z,100990.94
2022-07-25T00:53:43.041Z,100983.88
2022-07-25T00:56:10.490Z,100980.38
2022-07-25T00:58:38.239Z,100981.38
2022-07-25T01:01:05.977Z,100975.00
2022-07-25T01:03:33.483Z,100966.09
2022-07-25T01:06:00.942Z,100972.47
2022-07-25T01:08:29.713Z,100967.44
2022-07-25T01:10:57.163Z,100963.25
2022-07-25T01:13:24.614Z,100966.13
2022-07-25T01:15:52.091Z,100965.09
2022-07-25T01:18:19.559Z,100958.06
2022-07-25T01:20:48.526Z,100952.00
2022-07-25T01:23:15.982Z,100955.69
2022-07-25T01:25:43.548Z,100948.47
2022-07-25T01:28:11.008Z,100946.81
2022-07-25T01:30:38.523Z,100942.25
2022-07-25T01:33:07.007Z,100937.72
2022-07-25T01:35:36.224Z,100939.41
2022-07-25T01:38:06.739Z,100938.75
2022-07-25T01:40:34.189Z,100931.69
2022-07-25T01:43:01.627Z,100938.09
2022-07-25T01:45:29.098Z,100940.94
2022-07-25T01:47:56.575Z,100938.25
2022-07-25T01:50:24.197Z,100936.41
2022-07-25T01:52:51.646Z,100938.09
2022-07-25T01:55:20.398Z,100934.19
2022-07-25T01:57:49.729Z,100930.69
2022-07-25T02:00:17.735Z,100921.09
2022-07-25T02:02:45.368Z,100931.03
2022-07-25T02:05:13.654Z,100924.13
2022-07-25T02:07:41.106Z,100926.66
2022-07-25T02:10:09.131Z,100916.94
2022-07-25T02:12:37.860Z,100916.94
2022-07-25T02:15:06.096Z,100923.13
2022-07-25T02:17:33.574Z,100912.38
2022-07-25T02:20:01.014Z,100919.78
2022-07-25T02:22:28.452Z,100909.19
2022-07-25T02:24:55.902Z,100903.00
2022-07-25T02:27:23.356Z,100904.81
2022-07-25T02:29:52.083Z,100907.69
2022-07-25T02:32:19.850Z,100899.81
2022-07-25T02:34:47.294Z,100898.97
2022-07-25T02:37:14.831Z,100891.94
2022-07-25T02:39:42.272Z,100890.91
2022-07-25T02:42:09.737Z,100883.88
2022-07-25T02:44:37.181Z,100891.06
2022-07-25T02:47:05.970Z,100895.63
2022-07-25T02:49:33.448Z,100887.72
2022-07-25T02:52:00.895Z,100886.72
2022-07-25T02:54:28.394Z,100884.22
2022-07-25T02:56:56.207Z,100876.31
2022-07-25T02:59:23.649Z,100873.81
2022-07-25T03:01:51.208Z,100871.13
2022-07-25T03:04:20.059Z,100867.44
2022-07-25T03:06:47.565Z,100869.09
2022-07-25T03:09:14.999Z,100870.78
2022-07-25T03:11:42.470Z,100867.44
2022-07-25T03:14:10.251Z,100868.25
2022-07-25T03:16:37.914Z,100864.06
2022-07-25T03:19:10.155Z,100859.53
2022-07-25T03:21:39.194Z,100853.13
2022-07-25T03:24:07.489Z,100846.28
2022-07-25T03:26:35.149Z,100852.47
2022-07-25T03:29:02.604Z,100847.09
2022-07-25T03:31:30.155Z,100844.41
2022-07-25T03:33:57.701Z,100847.94
2022-07-25T03:36:25.160Z,100834.34
2022-07-25T03:38:55.815Z,100832.69
2022-07-25T03:41:23.280Z,100836.53
2022-07-25T03:43:50.745Z,100841.25
2022-07-25T03:46:18.229Z,100830.81
2022-07-25T03:48:45.782Z,100823.78
2022-07-25T03:51:13.272Z,100833.34
2022-07-25T03:53:54.739Z,100834.19
2022-07-25T03:56:23.581Z,100834.88
2022-07-25T03:58:51.483Z,100824.97
2022-07-25T04:01:18.964Z,100826.81
2022-07-25T04:03:46.812Z,100821.78
2022-07-25T04:06:14.247Z,100814.38
2022-07-25T04:08:41.687Z,100815.22
2022-07-25T04:11:09.142Z,100809.00
2022-07-25T04:13:37.929Z,100811.03
2022-07-25T04:16:07.067Z,100804.63
2022-07-25T04:18:35.919Z,100802.97
2022-07-25T04:21:04.077Z,100802.81
2022-07-25T04:23:31.640Z,100797.59
2022-07-25T04:25:59.083Z,100800.28
2022-07-25T04:28:26.551Z,100802.97
2022-07-25T04:30:55.323Z,100797.91
2022-07-25T04:33:22.749Z,100798.75
2022-07-25T04:35:50.746Z,100801.13
2022-07-25T04:38:18.258Z,100793.19
2022-07-25T04:40:45.736Z,100790.84
2022-07-25T04:43:13.194Z,100794.22
2022-07-25T04:45:40.771Z,100786.50
2022-07-25T04:48:09.579Z,100779.47
2022-07-25T04:50:37.025Z,100774.09
2022-07-25T04:53:04.501Z,100779.28
2022-07-25T04:55:33.233Z,100771.78
2022-07-25T04:58:00.676Z,100771.56
2022-07-25T05:00:28.224Z,100771.78
2022-07-25T05:02:55.710Z,100769.75
2022-07-25T05:05:24.456Z,100759.50
2022-07-25T05:07:51.944Z,100757.00
2022-07-25T05:10:19.388Z,100756.34
2022-07-25T05:12:46.884Z,100751.31
2022-07-25T05:15:14.467Z,100743.59
2022-07-25T05:17:41.930Z,100745.28
2022-07-25T05:20:10.623Z,100742.41
2022-07-25T05:22:39.356Z,100735.84
2022-07-25T05:25:08.338Z,100741.72
2022-07-25T05:27:35.778Z,100738.19
2022-07-25T05:30:03.266Z,100737.22
2022-07-25T05:32:31.105Z,100729.16
2022-07-25T05:34:58.557Z,100722.78
2022-07-25T05:37:26.078Z,100721.59
2022-07-25T05:39:54.904Z,100723.28
2022-07-25T05:42:22.390Z,100720.59
2022-07-25T05:44:49.833Z,100725.97
2022-07-25T05:47:17.260Z,100718.06
2022-07-25T05:49:44.735Z,100714.50
2022-07-25T05:52:13.278Z,100710.97
2022-07-25T05:54:41.213Z,100713.31
2022-07-25T05:57:09.960Z,100704.91
2022-07-25T05:59:37.566Z,100708.28
2022-07-25T06:02:05.142Z,100707.66
2022-07-25T06:04:32.766Z,100705.28
2022-07-25T06:07:00.225Z,100701.56
2022-07-25T06:09:27.684Z,100702.56
2022-07-25T06:12:00.359Z,100699.72
2022-07-25T06:14:29.731Z,100700.75
2022-07-25T06:16:57.197Z,100704.91
2022-07-25T06:19:24.667Z,100698.84
2022-07-25T06:21:53.064Z,100698.84
2022-07-25T06:24:20.527Z,100700.16
2022-07-25T06:26:47.962Z,100696.47
2022-07-25T06:29:15.406Z,100687.75
2022-07-25T06:31:47.066Z,100685.19
2022-07-25T06:34:14.955Z,100672.91
2022-07-25T06:36:42.386Z,100679.56
2022-07-25T06:39:09.843Z,100673.53
2022-07-25T06:41:37.773Z,100666.13
2022-07-25T06:44:05.992Z,100664.47
2022-07-25T06:46:33.650Z,100663.88
2022-07-25T06:49:03.001Z,100667.16
2022-07-25T06:51:30.497Z,100656.72
2022-07-25T06:53:57.984Z,100654.38
2022-07-25T06:56:25.815Z,100647.44
2022-07-25T06:58:54.667Z,100650.00
2022-07-25T07:01:22.359Z,100647.97
2022-07-25T07:03:49.951Z,100647.28
2022-07-25T07:06:18.813Z,100648.56
2022-07-25T07:08:46.300Z,100642.38
2022-07-25T07:11:15.276Z,100625.06
2022-07-25T07:13:42.743Z,100627.75
2022-07-25T07:16:10.669Z,100620.63
2022-07-25T07:18:38.640Z,100621.56
2022-07-25T07:21:06.720Z,100622.22
2022-07-25T07:23:36.990Z,100616.91
2022-07-25T07:26:07.574Z,100606.25
2022-07-25T07:28:35.618Z,100603.88
2022-07-25T07:31:18.697Z,100608.75
2022-07-25T07:33:46.794Z,100609.38
2022-07-25T07:36:14.427Z,100614.41
2022-07-25T07:38:44.480Z,100617.75
2022-07-25T07:41:12.686Z,100605.97
2022-07-25T07:43:40.144Z,100603.28
2022-07-25T07:46:07.682Z,100601.97
2022-07-25T07:48:35.252Z,100605.13
2022-07-25T07:51:02.913Z,100601.59
2022-07-25T07:53:44.522Z,100610.31
2022-07-25T07:56:13.242Z,100595.69
2022-07-25T07:58:40.743Z,100600.41
2022-07-25T08:01:08.203Z,100598.84
2022-07-25T08:03:36.057Z,100599.94
2022-07-25T08:06:03.578Z,100594.31
2022-07-25T08:08:31.682Z,100598.56
2022-07-25T08:10:59.787Z,100588.72
2022-07-25T08:13:30.304Z,100590.22
2022-07-25T08:15:59.312Z,100585.97
2022-07-25T08:18:27.145Z,100583.47
2022-07-25T08:20:54.634Z,100583.91
2022-07-25T08:23:22.338Z,100579.19
2022-07-25T08:25:49.917Z,100571.94
2022-07-25T08:28:17.389Z,100571.94
2022-07-25T08:30:46.322Z,100571.38
2022-07-25T08:33:15.916Z,100568.22
2022-07-25T08:35:47.021Z,100561.53
2022-07-25T08:38:14.538Z,100568.88
2022-07-25T08:40:41.986Z,100560.25
2022-07-25T08:43:11.983Z,100555.97
2022-07-25T08:45:39.428Z,100556.25
2022-07-25T08:48:08.203Z,100551.63
2022-07-25T08:50:35.645Z,100550.09
2022-07-25T08:53:31.454Z,100544.06
2022-07-25T08:55:50.618Z,100552.69
2022-07-25T08:58:18.459Z,100545.13
2022-07-25T09:00:45.972Z,100539.66
2022-07-25T09:03:14.758Z,100544.03
2022-07-25T09:05:43.754Z,100546.84
2022-07-25T09:08:11.978Z,100534.41
2022-07-25T09:10:39.875Z,100536.81
2022-07-25T09:13:10.993Z,100526.50
2022-07-25T09:15:39.799Z,100525.31
2022-07-25T09:18:10.842Z,100518.44
2022-07-25T09:20:41.113Z,100518.25
2022-07-25T09:23:08.575Z,100523.50
2022-07-25T09:25:36.141Z,100509.22
2022-07-25T09:28:16.836Z,100502.59
2022-07-25T09:30:54.770Z,100504.72
2022-07-25T09:33:22.530Z,100503.69
2022-07-25T09:35:51.384Z,100496.59
2022-07-25T09:38:18.996Z,100489.38
2022-07-25T09:40:55.070Z,100484.66
2022-07-25T09:43:23.420Z,100478.34
2022-07-25T09:45:51.608Z,100474.63
2022-07-25T09:48:19.455Z,100471.31
2022-07-25T09:50:46.894Z,100464.88
2022-07-25T09:53:15.617Z,100461.94
2022-07-25T09:55:43.287Z,100463.47
2022-07-25T09:58:10.761Z,100461.38
2022-07-25T10:00:38.215Z,100458.66
2022-07-25T10:03:15.498Z,100450.22
2022-07-25T10:06:01.092Z,100451.28
2022-07-25T10:08:30.051Z,100434.69
2022-07-25T10:10:58.223Z,100437.56
2022-07-25T10:13:34.212Z,100431.63
2022-07-25T10:16:01.944Z,100434.72
2022-07-25T10:18:30.481Z,100422.88
2022-07-25T10:21:24.426Z,100423.44
2022-07-25T10:24:04.873Z,100416.91
2022-07-25T10:26:32.845Z,100409.03
2022-07-25T10:29:01.653Z,100405.28
2022-07-25T10:31:35.689Z,100404.66
2022-07-25T10:34:05.542Z,100406.06
2022-07-25T10:36:42.977Z,100401.28
2022-07-25T10:39:13.260Z,100396.31
2022-07-25T10:41:40.851Z,100390.72
2022-07-25T10:44:12.684Z,100390.75
2022-07-25T10:46:40.231Z,100392.09
2022-07-25T10:49:08.906Z,100381.72
2022-07-25T10:51:41.676Z,100379.19
2022-07-25T10:54:17.317Z,100378.72
2022-07-25T10:56:55.377Z,100375.19
2022-07-25T10:59:33.415Z,100370.41
2022-07-25T11:02:01.144Z,100367.09
2022-07-25T11:04:28.824Z,100361.97
2022-07-25T11:06:56.262Z,100360.06
2022-07-25T11:09:27.586Z,100368.34
2022-07-25T11:11:56.372Z,100349.84
2022-07-25T11:14:24.852Z,100346.09
2022-07-25T11:16:53.146Z,100343.84
2022-07-25T11:19:21.917Z,100336.78
2022-07-25T11:21:50.481Z,100353.59
2022-07-25T11:24:18.410Z,100346.75
2022-07-25T11:26:48.553Z,100340.50
2022-07-25T11:29:20.205Z,100333.94
2022-07-25T11:31:55.255Z,100333.06
2022-07-25T11:34:24.097Z,100329.13
2022-07-25T11:36:52.060Z,100322.72
2022-07-25T11:39:19.773Z,100320.03
2022-07-25T11:41:48.572Z,100313.94
2022-07-25T11:44:16.070Z,100313.72
2022-07-25T11:46:44.824Z,100307.50
2022-07-25T11:49:12.894Z,100311.44
2022-07-25T11:51:41.731Z,100307.34
2022-07-25T11:54:09.802Z,100311.91
2022-07-25T11:56:42.820Z,100301.94
2022-07-25T11:59:12.407Z,100297.16
2022-07-25T12:01:41.231Z,100296.97
2022-07-25T12:04:10.334Z,100292.19
2022-07-25T12:06:37.789Z,100293.66
2022-07-25T12:09:18.580Z,100294.47
2022-07-25T12:11:47.124Z,100283.88
2022-07-25T12:14:15.894Z,100278.06
2022-07-25T12:16:43.421Z,100272.00
2022-07-25T12:19:18.497Z,100265.38
2022-07-25T12:21:45.940Z,100264.31
2022-07-25T12:24:13.549Z,100268.50
2022-07-25T12:26:40.977Z,100254.38
2022-07-25T12:29:08.827Z,100242.50
2022-07-25T12:31:37.897Z,100248.31
2022-07-25T12:34:05.340Z,100251.03
2022-07-25T12:36:34.312Z,100248.31
2022-07-25T12:39:01.863Z,100242.94
2022-07-25T12:41:29.313Z,100241.69
2022-07-25T12:43:58.885Z,100228.78
2022-07-25T12:46:26.375Z,100219.22
2022-07-25T12:48:55.183Z,100220.88
2022-07-25T12:51:22.718Z,100221.50
2022-07-25T12:53:50.151Z,100206.53
2022-07-25T12:56:17.759Z,100205.69
2022-07-25T12:58:45.210Z,100207.38
2022-07-25T13:01:13.685Z,100203.38
2022-07-25T13:03:41.527Z,100191.38
2022-07-25T13:06:10.439Z,100197.97
2022-07-25T13:08:37.931Z,100203.84
2022-07-25T13:11:05.398Z,100187.63
2022-07-25T13:13:32.837Z,100191.75
2022-07-25T13:16:00.324Z,100186.34
2022-07-25T13:18:27.772Z,100185.75
2022-07-25T13:20:55.242Z,100185.75
2022-07-25T13:23:23.981Z,100175.56
2022-07-25T13:25:51.416Z,100184.72
2022-07-25T13:28:18.865Z,100173.94
2022-07-25T13:30:46.310Z,100168.13
2022-07-25T13:33:14.881Z,100163.13
2022-07-25T13:35:42.324Z,100166.03
2022-07-25T13:38:10.359Z,100146.91
2022-07-25T13:40:41.855Z,100149.44
2022-07-25T13:43:09.329Z,100150.66
2022-07-25T13:45:36.871Z,100146.47
2022-07-25T13:48:29.609Z,100135.66
2022-07-25T13:50:52.120Z,100136.31
2022-07-25T13:53:19.680Z,100131.13
2022-07-25T13:55:48.426Z,100130.44
2022-07-25T13:58:15.872Z,100126.09
2022-07-25T14:00:43.493Z,100125.66
2022-07-25T14:03:11.094Z,100123.59
2022-07-25T14:05:39.446Z,100109.41
2022-07-25T14:08:07.512Z,100116.88
2022-07-25T14:10:35.178Z,100111.03
2022-07-25T14:13:04.014Z,100111.91
2022-07-25T14:15:31.483Z,100100.28
2022-07-25T14:17:58.936Z,100094.69
2022-07-25T14:20:26.528Z,100090.94
2022-07-25T14:22:53.987Z,100091.94
2022-07-25T14:25:21.468Z,100095.66
2022-07-25T14:27:49.011Z,100098.78
2022-07-25T14:30:17.849Z,100108.88
2022-07-25T14:32:45.303Z,100089.56
2022-07-25T14:35:13.175Z,100099.69
2022-07-25T14:37:40.670Z,100094.72
2022-07-25T14:40:10.939Z,100087.03
2022-07-25T14:42:40.155Z,100084.31
2022-07-25T14:45:08.220Z,100080.56
2022-07-25T14:47:37.042Z,100063.31
2022-07-25T14:50:04.769Z,100071.84
2022-07-25T14:52:32.226Z,100074.81
2022-07-25T14:54:59.723Z,100071.88
2022-07-25T14:57:27.163Z,100068.09
2022-07-25T14:59:54.609Z,100053.53
2022-07-25T15:02:22.215Z,100048.59
2022-07-25T15:04:51.021Z,100046.31
2022-07-25T15:07:18.542Z,100036.91
2022-07-25T15:09:46.055Z,100034.47
2022-07-25T15:12:16.627Z,100031.56
2022-07-25T15:14:44.839Z,100029.31
2022-07-25T15:17:12.274Z,100024.78
2022-07-25T15:19:39.746Z,100024.78
2022-07-25T15:22:08.497Z,100013.94
2022-07-25T15:25:06.414Z,100013.53
2022-07-25T15:27:23.382Z,100013.97
2022-07-25T15:29:51.847Z,100006.09
2022-07-25T15:32:20.377Z,100015.69
2022-07-25T15:34:47.853Z,100005.78
2022-07-25T15:37:16.621Z,100007.47
2022-07-25T15:39:44.988Z,100002.34
2022-07-25T15:42:12.450Z,99985.75
2022-07-25T15:44:39.919Z,99992.19
2022-07-25T15:47:07.582Z,99985.59
2022-07-25T15:49:35.135Z,99986.56
2022-07-25T15:52:02.569Z,99982.19
2022-07-25T15:54:31.355Z,99976.78
2022-07-25T15:56:58.845Z,99972.06
2022-07-25T15:59:26.375Z,99972.88
2022-07-25T16:01:53.885Z,99959.53
2022-07-25T16:04:21.413Z,99950.53
2022-07-25T16:06:49.742Z,99948.69
2022-07-25T16:09:18.142Z,99949.66
2022-07-25T16:11:46.972Z,99948.41
2022-07-25T16:14:14.472Z,99940.34
2022-07-25T16:16:44.053Z,99939.72
2022-07-25T16:19:11.557Z,99933.94
2022-07-25T16:21:39.872Z,99931.47
2022-07-25T16:24:09.318Z,99932.75
2022-07-25T16:26:36.788Z,99931.53
2022-07-25T16:29:05.770Z,99926.56
2022-07-25T16:31:33.323Z,99921.16
2022-07-25T16:34:00.831Z,99916.59
2022-07-25T16:36:29.133Z,99922.59
2022-07-25T16:38:56.578Z,99922.00
2022-07-25T16:41:24.021Z,99917.63
2022-07-25T16:43:51.467Z,99916.19
2022-07-25T16:46:21.993Z,99915.00
2022-07-25T16:48:52.066Z,99917.50
2022-07-25T16:51:19.622Z,99917.88
2022-07-25T16:53:47.308Z,99911.63
2022-07-25T16:56:14.779Z,99912.09
2022-07-25T16:58:42.705Z,99910.22
2022-07-25T17:01:10.155Z,99908.78
2022-07-25T17:03:38.874Z,99905.03
2022-07-25T17:06:06.797Z,99904.81
2022-07-25T17:08:34.309Z,99904.44
2022-07-25T17:11:02.123Z,99906.53
2022-07-25T17:13:29.571Z,99910.88
2022-07-25T17:15:57.147Z,99913.13
2022-07-25T17:18:24.657Z,99947.88
2022-07-25T17:20:54.603Z,99972.81
2022-07-25T17:23:22.081Z,99998.63
2022-07-25T17:25:50.843Z,100023.38
2022-07-25T17:28:18.714Z,100064.75
2022-07-25T17:30:46.519Z,100064.81
2022-07-25T17:33:14.050Z,100042.03
2022-07-25T17:35:41.514Z,100034.38
2022-07-25T17:38:11.563Z,100057.00
2022-07-25T17:40:41.894Z,100079.22
2022-07-25T17:43:09.326Z,100087.31
2022-07-25T17:45:36.783Z,100101.41
2022-07-25T17:48:04.431Z,100132.09
2022-07-25T17:50:31.857Z,100130.25
2022-07-25T17:52:59.967Z,100138.34
2022-07-25T17:55:29.040Z,100170.94
2022-07-25T17:57:56.671Z,100189.00
2022-07-25T18:00:24.225Z,100185.44
2022-07-25T18:02:51.774Z,100183.16
2022-07-25T18:05:19.347Z,100180.69
2022-07-25T18:07:49.512Z,100151.63
2022-07-25T18:10:17.491Z,100113.88
2022-07-25T18:15:14.803Z,100122.16
2022-07-25T18:17:42.717Z,100092.72
2022-07-25T18:20:11.260Z,100091.88
2022-07-25T18:22:40.943Z,100115.97
2022-07-25T18:25:09.410Z,100124.25
2022-07-25T18:27:36.873Z,100115.31
2022-07-25T18:30:07.904Z,100110.16
2022-07-25T18:32:35.367Z,100115.97
2022-07-25T18:35:02.937Z,100112.41
2022-07-25T18:37:30.381Z,100102.69
2022-07-25T18:39:57.988Z,100101.00
2022-07-25T18:42:29.706Z,100095.63
2022-07-25T18:44:57.650Z,100087.94
2022-07-25T18:47:32.118Z,100085.47
2022-07-25T18:50:00.031Z,100082.97
2022-07-25T18:52:29.007Z,100087.31
2022-07-25T18:54:56.495Z,100078.41
2022-07-25T18:57:24.054Z,100083.19
2022-07-25T18:59:51.509Z,100085.25
2022-07-25T19:02:18.955Z,100087.31
2022-07-25T19:04:47.766Z,100097.28
2022-07-25T19:07:15.333Z,100092.72
2022-07-25T19:09:42.831Z,100091.03
2022-07-25T19:12:11.974Z,100104.72
2022-07-25T19:14:39.416Z,100104.72
2022-07-25T19:17:06.900Z,100108.66
2022-07-25T19:19:34.436Z,100106.81
2022-07-25T19:22:03.175Z,100115.72
2022-07-25T19:24:31.330Z,100104.31
2022-07-25T19:26:58.933Z,100090.22
2022-07-25T19:29:26.685Z,100101.00
2022-07-25T19:31:54.202Z,100101.19
2022-07-25T19:34:21.755Z,100095.19
2022-07-25T19:36:49.208Z,100100.59
2022-07-25T19:39:18.352Z,100100.16
2022-07-25T19:41:47.198Z,100105.53
2022-07-25T19:44:14.926Z,100109.69
2022-07-25T19:46:42.436Z,100097.25
2022-07-25T19:49:10.094Z,100081.28
2022-07-25T19:51:37.593Z,100076.13
2022-07-25T19:54:08.010Z,100092.28
2022-07-25T19:56:37.002Z,100088.53
2022-07-25T19:59:04.490Z,100086.91
2022-07-25T20:01:34.156Z,100087.91
2022-07-25T20:04:01.907Z,100089.59
2022-07-25T20:06:29.349Z,100082.53
2022-07-25T20:08:56.870Z,100089.59
2022-07-25T20:11:24.354Z,100089.59
2022-07-25T20:13:53.120Z,100189.09
2022-07-25T20:16:20.648Z,100154.91
2022-07-25T20:18:48.132Z,100160.31
2022-07-25T20:21:17.867Z,100147.84
2022-07-25T20:23:45.333Z,100149.72
2022-07-25T20:26:12.804Z,100147.84
2022-07-25T20:28:40.270Z,100152.41
2022-07-25T20:31:09.147Z,100162.38
2022-07-25T20:33:36.693Z,100166.91
2022-07-25T20:36:04.409Z,100174.19
2022-07-25T20:38:32.287Z,100175.00
2022-07-25T20:40:59.750Z,100175.00
2022-07-25T20:43:28.475Z,100186.63
2022-07-25T20:45:56.090Z,100187.66
2022-07-25T20:48:24.985Z,100191.38
2022-07-25T20:50:52.546Z,100199.47
2022-07-25T20:53:20.041Z,100208.41
2022-07-25T20:55:47.545Z,100207.75
2022-07-25T20:58:14.989Z,100214.00
2022-07-25T21:00:42.442Z,100226.63
2022-07-25T21:03:09.897Z,100226.63
2022-07-25T21:05:39.387Z,100229.56
2022-07-25T21:08:07.653Z,100238.47
2022-07-25T21:10:35.132Z,100235.75
2022-07-25T21:13:02.608Z,100251.94
2022-07-25T21:15:30.757Z,100256.50
2022-07-25T21:17:58.214Z,100272.69
2022-07-25T21:20:25.644Z,100305.84
2022-07-25T21:22:56.183Z,100344.41
2022-07-25T21:25:23.659Z,100352.25
2022-07-25T21:27:51.217Z,100360.94
2022-07-25T21:30:18.725Z,100358.88
2022-07-25T21:32:46.181Z,100348.47
2022-07-25T21:35:13.655Z,100338.47
2022-07-25T21:37:41.213Z,100334.13
2022-07-25T21:40:11.049Z,100328.75
2022-07-25T21:42:38.501Z,100326.06
2022-07-25T21:45:07.110Z,100305.31
2022-07-25T21:47:34.562Z,100317.59
2022-07-25T21:50:24.940Z,100330.00
2022-07-25T21:52:52.923Z,100336.88
2022-07-25T21:55:21.854Z,100325.66
2022-07-25T21:57:49.475Z,100312.38
2022-07-25T22:00:17.170Z,100298.06
2022-07-25T22:02:44.807Z,100282.56
2022-07-25T22:05:12.237Z,100273.81
2022-07-25T22:07:39.707Z,100262.63
2022-07-25T22:10:08.069Z,100273.63
2022-07-25T22:12:36.840Z,100298.28
2022-07-25T22:15:04.810Z,100304.72
2022-07-25T22:17:48.407Z,100306.56
2022-07-25T22:20:17.259Z,100318.22
2022-07-25T22:22:44.693Z,100309.50
2022-07-25T22:25:12.157Z,100319.22
2022-07-25T22:27:40.913Z,100331.06
2022-07-25T22:30:12.324Z,100345.53
2022-07-25T22:32:43.772Z,100349.91
2022-07-25T22:35:11.217Z,100349.91
2022-07-25T22:37:38.663Z,100335.97
2022-07-25T22:40:07.246Z,100333.78
2022-07-25T22:42:34.692Z,100339.94
2022-07-25T22:45:03.452Z,100333.31
2022-07-25T22:47:30.914Z,100329.16
2022-07-25T22:49:58.409Z,100337.44
2022-07-25T22:52:25.865Z,100341.78
2022-07-25T22:54:53.310Z,100341.34
2022-07-25T22:57:20.780Z,100352.13
2022-07-25T22:59:49.207Z,100359.50
2022-07-25T23:02:17.994Z,100361.38
2022-07-25T23:04:45.458Z,100373.59
2022-07-25T23:07:13.160Z,100378.41
2022-07-25T23:09:40.635Z,100387.50
2022-07-25T23:12:08.606Z,100390.13
2022-07-25T23:14:36.080Z,100376.03
2022-07-25T23:17:19.934Z,100356.94
2022-07-25T23:19:50.160Z,100380.41
2022-07-25T23:22:17.676Z,100409.66
2022-07-25T23:24:45.161Z,100403.66
2022-07-25T23:27:12.648Z,100419.44
2022-07-25T23:29:40.096Z,100421.94
2022-07-25T23:32:07.987Z,100433.59
2022-07-25T23:34:35.475Z,100432.59
2022-07-25T23:37:04.448Z,100422.25
2022-07-25T23:39:32.430Z,100412.50
2022-07-25T23:41:59.949Z,100410.47
2022-07-25T23:44:27.455Z,100423.94
2022-07-25T23:46:59.675Z,100439.88
2022-07-25T23:49:29.092Z,100453.34
2022-07-25T23:51:57.368Z,100457.72
2022-07-25T23:54:26.129Z,100463.09
2022-07-25T23:56:53.661Z,100470.34
2022-07-25T23:59:21.232Z,100468.47
